Time;durP1;ratioP1;P1;durP2;ratioP2;P2;SDS_P1;SDS_P2;PMS_P1;PMS_P2;Temp;Humidity;BMP_temperature;BMP_pressure;BME280_temperature;BME280_humidity;BME280_pressure;Samples;Min_cycle;Max_cycle;Signal;HPM_P1;HPM_P2
2023/02/06 00:00:22;;;;;;;1999.90;999.90;;;3.50;99.90;;;;;;5057833;28;20541;-69
2023/02/06 00:02:48;;;;;;;1999.90;999.90;;;3.60;99.90;;;;;;5058074;28;20168;-69
2023/02/06 00:05:14;;;;;;;1999.90;999.90;;;3.50;99.90;;;;;;5059528;28;20164;-68
2023/02/06 00:07:40;;;;;;;1999.90;999.90;;;3.50;99.90;;;;;;5057684;28;20234;-69
2023/02/06 00:10:06;;;;;;;1999.90;999.90;;;3.40;99.90;;;;;;5058193;28;20434;-69
2023/02/06 00:12:32;;;;;;;1999.90;999.90;;;3.40;99.90;;;;;;5059087;28;20168;-69
2023/02/06 00:14:57;;;;;;;1999.90;999.90;;;3.40;99.90;;;;;;5057867;28;20210;-69
2023/02/06 00:17:23;;;;;;;1999.90;999.90;;;3.40;99.90;;;;;;5057846;28;20168;-69
2023/02/06 00:19:48;;;;;;;1999.90;999.90;;;3.40;99.90;;;;;;5057303;28;20183;-69
2023/02/06 00:22:14;;;;;;;1999.90;999.90;;;3.30;99.90;;;;;;5057037;28;20213;-69
2023/02/06 00:24:40;;;;;;;1999.90;999.90;;;3.30;99.90;;;;;;5057488;28;20163;-69
2023/02/06 00:27:06;;;;;;;1999.90;999.90;;;3.30;99.90;;;;;;5057502;28;20575;-69
2023/02/06 00:29:32;;;;;;;1999.90;999.90;;;3.20;99.90;;;;;;5055817;28;20199;-68
2023/02/06 00:31:57;;;;;;;1999.90;999.90;;;3.20;99.90;;;;;;5052717;28;20201;-69
2023/02/06 00:34:23;;;;;;;1999.90;999.90;;;3.30;99.90;;;;;;5052882;28;20684;-68
2023/02/06 00:36:50;;;;;;;1999.90;999.90;;;3.20;99.90;;;;;;5052771;28;20237;-68
2023/02/06 00:39:16;;;;;;;1999.90;999.90;;;3.20;99.90;;;;;;5052730;28;20430;-68
2023/02/06 00:41:42;;;;;;;1999.90;999.90;;;3.10;99.90;;;;;;5052655;28;20179;-68
2023/02/06 00:44:08;;;;;;;1999.90;999.90;;;3.10;99.90;;;;;;5052707;28;20233;-68
2023/02/06 00:46:33;;;;;;;1999.90;999.90;;;2.90;99.90;;;;;;5052597;28;20171;-69
2023/02/06 00:48:59;;;;;;;1999.90;999.90;;;2.90;99.90;;;;;;5052583;28;20688;-68
2023/02/06 00:51:25;;;;;;;1999.90;999.90;;;2.80;99.90;;;;;;5052367;28;20226;-68
2023/02/06 00:53:50;;;;;;;1999.90;999.90;;;2.80;99.90;;;;;;5052431;28;20203;-68
2023/02/06 00:56:16;;;;;;;1999.90;999.90;;;2.70;99.90;;;;;;5052302;28;20175;-68
2023/02/06 00:58:41;;;;;;;1999.90;999.90;;;2.70;99.90;;;;;;5052275;28;20627;-68
2023/02/06 01:01:07;;;;;;;1999.90;999.90;;;2.60;99.90;;;;;;5052275;28;20163;-69
2023/02/06 01:03:33;;;;;;;1999.90;999.90;;;2.60;99.90;;;;;;5052416;28;20641;-69
2023/02/06 01:05:58;;;;;;;1999.90;999.90;;;2.60;99.90;;;;;;5052129;28;20164;-68
2023/02/06 01:08:24;;;;;;;1999.90;999.90;;;2.50;99.90;;;;;;5052297;28;20440;-69
2023/02/06 01:10:50;;;;;;;1999.90;999.90;;;2.50;99.90;;;;;;5052103;28;20254;-68
2023/02/06 01:13:16;;;;;;;1999.90;999.90;;;2.50;99.90;;;;;;5052131;28;20211;-68
2023/02/06 01:15:42;;;;;;;1999.90;999.90;;;2.50;99.90;;;;;;5052048;28;20234;-68
2023/02/06 01:18:07;;;;;;;1999.90;999.90;;;2.50;99.90;;;;;;5052091;28;20194;-68
2023/02/06 01:20:33;;;;;;;1999.90;999.90;;;2.50;99.90;;;;;;5052096;28;20191;-68
2023/02/06 01:22:59;;;;;;;1999.90;999.90;;;2.40;99.90;;;;;;5052012;28;20179;-68
2023/02/06 01:25:24;;;;;;;1999.90;999.90;;;2.40;99.90;;;;;;5052099;28;20176;-69
2023/02/06 01:27:50;;;;;;;1999.90;999.90;;;2.30;99.90;;;;;;5051882;28;20672;-68
2023/02/06 01:30:15;;;;;;;1999.90;999.90;;;2.20;99.90;;;;;;5051748;28;20213;-68
2023/02/06 01:32:42;;;;;;;1999.90;999.90;;;2.20;99.90;;;;;;5052064;28;20183;-69
2023/02/06 01:35:09;;;;;;;1999.90;999.90;;;2.20;99.90;;;;;;5051982;28;20196;-68
2023/02/06 01:37:36;;;;;;;1999.90;999.90;;;2.10;99.90;;;;;;5051910;28;20172;-68
2023/02/06 01:40:03;;;;;;;1999.90;999.90;;;2.10;99.90;;;;;;5051804;28;20187;-68
2023/02/06 01:42:28;;;;;;;1999.90;999.90;;;2.10;99.90;;;;;;5052084;28;20167;-68
2023/02/06 01:45:25;;;;;;;1999.90;999.90;;;2.10;99.90;;;;;;5052300;28;20251;-68
2023/02/06 01:48:13;;;;;;;1999.90;999.90;;;2.10;99.90;;;;;;5052037;28;20648;-68
2023/02/06 01:50:43;;;;;;;1999.90;999.90;;;2.10;99.90;;;;;;5051825;28;20266;-68
2023/02/06 01:53:09;;;;;;;1999.90;999.90;;;2.00;99.90;;;;;;5052121;28;20692;-68
2023/02/06 01:55:37;;;;;;;1999.90;999.90;;;2.10;99.90;;;;;;5051775;28;20261;-68
2023/02/06 01:58:04;;;;;;;1999.90;999.90;;;2.10;99.90;;;;;;5051875;28;20164;-68
2023/02/06 02:00:30;;;;;;;1999.90;999.90;;;2.10;99.90;;;;;;5051689;28;20274;-68
2023/02/06 02:02:55;;;;;;;1999.90;999.90;;;2.10;99.90;;;;;;5051817;28;20247;-68
2023/02/06 02:05:21;;;;;;;1999.90;999.90;;;2.10;99.90;;;;;;5052365;28;20175;-68
2023/02/06 02:07:59;;;;;;;1999.90;999.90;;;2.20;99.90;;;;;;5052154;28;20573;-68
2023/02/06 02:10:29;;;;;;;1999.90;999.90;;;2.20;99.90;;;;;;5052056;28;20426;-68
2023/02/06 02:12:55;;;;;;;1999.90;999.90;;;2.20;99.90;;;;;;5051952;28;20199;-68
2023/02/06 02:15:30;;;;;;;1999.90;999.90;;;2.10;99.90;;;;;;5052027;28;20242;-68
2023/02/06 02:18:05;;;;;;;1999.90;999.90;;;2.10;99.90;;;;;;5052405;28;20187;-68
2023/02/06 02:21:09;;;;;;;1999.90;999.90;;;2.10;99.90;;;;;;5052231;28;20785;-68
2023/02/06 02:24:03;;;;;;;1999.90;999.90;;;2.10;99.90;;;;;;5052047;28;20167;-68
2023/02/06 02:26:50;;;;;;;1999.90;999.90;;;2.10;99.90;;;;;;5038296;28;20234;-68
2023/02/06 02:29:35;;;;;;;1999.90;999.90;;;2.20;99.90;;;;;;5051604;28;20212;-68
2023/02/06 02:32:19;;;;;;;1999.90;999.90;;;2.10;99.90;;;;;;5051609;28;20174;-68
2023/02/06 02:35:03;;;;;;;1999.90;999.90;;;2.20;99.90;;;;;;5051923;28;20195;-68
2023/02/06 02:37:54;;;;;;;1999.90;999.90;;;2.20;99.90;;;;;;5051948;28;20625;-68
2023/02/06 02:40:26;;;;;;;1999.90;999.90;;;2.10;99.90;;;;;;5052038;28;20196;-68
2023/02/06 02:43:06;;;;;;;1999.90;999.90;;;2.10;99.90;;;;;;5051802;28;20164;-68
2023/02/06 02:46:07;;;;;;;1999.90;999.90;;;2.10;99.90;;;;;;5054101;28;20171;-68
2023/02/06 02:48:43;;;;;;;1999.90;999.90;;;2.00;99.90;;;;;;5054871;28;20252;-68
2023/02/06 02:51:10;;;;;;;1999.90;999.90;;;1.90;99.90;;;;;;5054973;28;20675;-68
2023/02/06 02:53:36;;;;;;;1999.90;999.90;;;1.80;99.90;;;;;;5054776;28;20554;-68
2023/02/06 02:56:01;;;;;;;1999.90;999.90;;;1.80;99.90;;;;;;5054798;28;20168;-68
2023/02/06 02:58:32;;;;;;;1999.90;999.90;;;1.70;99.90;;;;;;5054654;28;20259;-68
2023/02/06 03:01:10;;;;;;;1999.90;999.90;;;1.70;99.90;;;;;;5054833;28;20171;-68
2023/02/06 03:03:38;;;;;;;1999.90;999.90;;;1.70;99.90;;;;;;5054758;28;20198;-68
2023/02/06 03:06:25;;;;;;;1999.90;999.90;;;1.60;99.90;;;;;;5054686;28;20567;-68
2023/02/06 03:09:04;;;;;;;1999.90;999.90;;;1.60;99.90;;;;;;5054442;28;20233;-68
2023/02/06 03:11:30;;;;;;;1999.90;999.90;;;1.50;99.90;;;;;;5054356;28;20175;-68
2023/02/06 03:14:14;;;;;;;1999.90;999.90;;;1.50;99.90;;;;;;5054452;28;20524;-68
2023/02/06 03:16:50;;;;;;;1999.90;999.90;;;1.60;99.90;;;;;;5054507;28;20283;-68
2023/02/06 03:19:22;;;;;;;1999.90;999.90;;;1.60;99.90;;;;;;5054382;28;20187;-68
2023/02/06 03:21:49;;;;;;;1999.90;999.90;;;1.60;99.90;;;;;;5054333;28;20580;-68
2023/02/06 03:24:29;;;;;;;1999.90;999.90;;;1.60;99.90;;;;;;5054468;28;20186;-68
2023/02/06 03:26:59;;;;;;;1999.90;999.90;;;1.60;99.90;;;;;;5054106;28;20168;-68
2023/02/06 03:29:26;;;;;;;1999.90;999.90;;;1.60;99.90;;;;;;5054146;28;20257;-68
2023/02/06 03:31:59;;;;;;;1999.90;999.90;;;1.70;99.90;;;;;;5053841;28;20179;-68
2023/02/06 03:34:49;;;;;;;1999.90;999.90;;;1.60;99.90;;;;;;5053993;28;20195;-68
2023/02/06 03:37:16;;;;;;;1999.90;999.90;;;1.60;99.90;;;;;;5054078;28;20202;-68
2023/02/06 03:39:42;;;;;;;1999.90;999.90;;;1.60;99.90;;;;;;5053988;28;20194;-68
2023/02/06 03:42:10;;;;;;;1999.90;999.90;;;1.60;99.90;;;;;;5054005;28;20221;-68
2023/02/06 03:44:39;;;;;;;1999.90;999.90;;;1.60;99.90;;;;;;5054124;28;20250;-69
2023/02/06 03:47:09;;;;;;;1999.90;999.90;;;1.60;99.90;;;;;;5053846;28;20168;-68
2023/02/06 03:49:37;;;;;;;1999.90;999.90;;;1.60;99.90;;;;;;5053830;28;20218;-68
2023/02/06 03:52:13;;;;;;;1999.90;999.90;;;1.60;99.90;;;;;;5053723;28;20168;-68
2023/02/06 03:54:48;;;;;;;1999.90;999.90;;;1.50;99.90;;;;;;5053609;28;20883;-68
2023/02/06 03:57:18;;;;;;;1999.90;999.90;;;1.50;99.90;;;;;;5052414;28;20167;-68
2023/02/06 03:59:44;;;;;;;1999.90;999.90;;;1.40;99.90;;;;;;5053286;28;20291;-68
2023/02/06 04:02:11;;;;;;;1999.90;999.90;;;1.40;99.90;;;;;;5053705;28;20184;-68
2023/02/06 04:04:40;;;;;;;1999.90;999.90;;;1.30;99.90;;;;;;5053550;28;20180;-68
2023/02/06 04:07:17;;;;;;;1999.90;999.90;;;1.30;99.90;;;;;;5053405;28;20167;-68
2023/02/06 04:09:43;;;;;;;1999.90;999.90;;;1.40;99.90;;;;;;5053011;28;20580;-68
2023/02/06 04:12:08;;;;;;;1999.90;999.90;;;1.40;99.90;;;;;;5037686;28;20258;-68
2023/02/06 04:14:35;;;;;;;1999.90;999.90;;;1.40;99.90;;;;;;5033381;28;20196;-69
2023/02/06 04:17:05;;;;;;;1999.90;999.90;;;1.40;99.90;;;;;;5033296;28;20172;-68
2023/02/06 04:19:31;;;;;;;1999.90;999.90;;;1.30;99.90;;;;;;5033114;28;20246;-69
2023/02/06 04:21:57;;;;;;;1999.90;999.90;;;1.20;99.90;;;;;;5033166;28;20169;-68
2023/02/06 04:24:23;;;;;;;1999.90;999.90;;;1.20;99.90;;;;;;5033389;28;20172;-69
2023/02/06 04:26:49;;;;;;;1999.90;999.90;;;1.10;99.90;;;;;;5033338;28;20503;-69
2023/02/06 04:29:15;;;;;;;1999.90;999.90;;;1.20;99.90;;;;;;5033278;28;20239;-68
2023/02/06 04:31:40;;;;;;;1999.90;999.90;;;1.10;99.90;;;;;;5033124;28;20168;-68
2023/02/06 04:34:06;;;;;;;1999.90;999.90;;;1.10;99.90;;;;;;5033401;28;20196;-68
2023/02/06 04:36:33;;;;;;;1999.90;999.90;;;1.10;99.90;;;;;;5033064;28;20172;-69
2023/02/06 04:38:59;;;;;;;1999.90;999.90;;;1.00;99.90;;;;;;5033173;28;20225;-68
2023/02/06 04:41:24;;;;;;;1999.90;999.90;;;1.00;99.90;;;;;;5033134;28;20172;-68
2023/02/06 04:43:50;;;;;;;1999.90;999.90;;;1.00;99.90;;;;;;5033283;28;20637;-68
2023/02/06 04:46:16;;;;;;;1999.90;999.90;;;1.00;99.90;;;;;;5032987;28;20907;-68
2023/02/06 04:48:41;;;;;;;1999.90;999.90;;;1.10;99.90;;;;;;5032881;28;20184;-69
2023/02/06 04:51:07;;;;;;;1999.90;999.90;;;1.10;99.90;;;;;;5032520;28;20226;-68
2023/02/06 04:53:32;;;;;;;1999.90;999.90;;;1.20;99.90;;;;;;5032528;28;20172;-69
2023/02/06 04:56:16;;;;;;;1999.90;999.90;;;1.20;99.90;;;;;;5032676;28;20168;-68
2023/02/06 04:58:41;;;;;;;1999.90;999.90;;;1.30;99.90;;;;;;5032653;28;20188;-69
2023/02/06 05:01:07;;;;;;;1999.90;999.90;;;1.30;99.90;;;;;;5032469;28;20176;-68
2023/02/06 05:03:33;;;;;;;1999.90;999.90;;;1.40;99.90;;;;;;5032496;28;20172;-68
2023/02/06 05:06:00;;;;;;;1999.90;999.90;;;1.30;99.90;;;;;;5032542;28;20251;-68
2023/02/06 05:08:26;;;;;;;1999.90;999.90;;;1.10;99.90;;;;;;5032184;28;20168;-68
2023/02/06 05:10:51;;;;;;;1999.90;999.90;;;1.40;99.90;;;;;;5032335;28;20218;-68
2023/02/06 05:13:18;;;;;;;1999.90;999.90;;;1.40;99.90;;;;;;5032686;28;20259;-68
2023/02/06 05:15:44;;;;;;;1999.90;999.90;;;1.50;99.90;;;;;;5032477;28;20227;-68
2023/02/06 05:18:10;;;;;;;1999.90;999.90;;;1.60;99.90;;;;;;5032239;28;20180;-68
2023/02/06 05:20:35;;;;;;;1999.90;999.90;;;1.60;99.90;;;;;;5032252;28;20197;-68
2023/02/06 05:23:01;;;;;;;1999.90;999.90;;;1.70;99.90;;;;;;5032812;28;20404;-68
2023/02/06 05:25:27;;;;;;;1999.90;999.90;;;1.80;99.90;;;;;;5032416;28;20649;-68
2023/02/06 05:27:53;;;;;;;1999.90;999.90;;;1.80;99.90;;;;;;5032357;28;20283;-68
2023/02/06 05:30:19;;;;;;;1999.90;999.90;;;1.90;99.90;;;;;;5032066;28;20903;-68
2023/02/06 05:32:44;;;;;;;1999.90;999.90;;;2.00;99.90;;;;;;5032543;28;20705;-68
2023/02/06 05:35:10;;;;;;;1999.90;999.90;;;2.00;99.90;;;;;;5032070;28;20568;-68
2023/02/06 05:37:37;;;;;;;1999.90;999.90;;;2.00;99.90;;;;;;5032143;28;20175;-68
2023/02/06 05:40:04;;;;;;;1999.90;999.90;;;2.00;99.90;;;;;;5031605;28;20223;-68
2023/02/06 05:42:30;;;;;;;1999.90;999.90;;;2.00;99.90;;;;;;5032290;28;20265;-68
2023/02/06 05:44:56;;;;;;;1999.90;999.90;;;1.90;99.90;;;;;;5032201;28;20797;-68
2023/02/06 05:47:21;;;;;;;1999.90;999.90;;;1.80;99.90;;;;;;5032193;28;20169;-68
2023/02/06 05:49:47;;;;;;;1999.90;999.90;;;1.80;99.90;;;;;;5031992;28;20250;-69
2023/02/06 05:52:13;;;;;;;1999.90;999.90;;;1.70;99.90;;;;;;5032482;28;20168;-68
2023/02/06 05:54:39;;;;;;;1999.90;999.90;;;1.70;99.90;;;;;;5032215;28;20238;-68
2023/02/06 05:57:05;;;;;;;1999.90;999.90;;;1.80;99.90;;;;;;5032447;28;20200;-68
2023/02/06 05:59:31;;;;;;;1999.90;999.90;;;1.80;99.90;;;;;;5032509;28;20427;-68
2023/02/06 06:01:56;;;;;;;1999.90;999.90;;;1.70;99.90;;;;;;5032184;28;20464;-68
2023/02/06 06:04:22;;;;;;;1999.90;999.90;;;1.70;99.90;;;;;;5032675;28;20172;-68
2023/02/06 06:06:47;;;;;;;1999.90;999.90;;;1.70;99.90;;;;;;5032195;28;20642;-68
2023/02/06 06:09:13;;;;;;;1999.90;999.90;;;1.70;99.90;;;;;;5032604;28;20279;-68
2023/02/06 06:11:39;;;;;;;1999.90;999.90;;;1.70;99.90;;;;;;5032030;28;20164;-68
2023/02/06 06:14:04;;;;;;;1999.90;999.90;;;1.60;99.90;;;;;;5032205;28;20272;-68
2023/02/06 06:16:30;;;;;;;1999.90;999.90;;;1.70;99.90;;;;;;5032602;28;20169;-68
2023/02/06 06:18:56;;;;;;;1999.90;999.90;;;1.70;99.90;;;;;;5032809;28;20453;-68
2023/02/06 06:21:22;;;;;;;1999.90;999.90;;;1.70;99.90;;;;;;5036687;28;20164;-68
2023/02/06 06:23:48;;;;;;;1999.90;999.90;;;1.70;99.90;;;;;;5036723;28;20274;-68
2023/02/06 06:26:13;;;;;;;1999.90;999.90;;;1.70;99.90;;;;;;5036669;28;20204;-68
2023/02/06 06:28:39;;;;;;;1999.90;999.90;;;1.70;99.90;;;;;;5036544;28;20712;-68
2023/02/06 06:31:10;;;;;;;1999.90;999.90;;;1.70;99.90;;;;;;5036186;28;20161;-68
2023/02/06 06:33:37;;;;;;;1999.90;999.90;;;1.70;99.90;;;;;;5018397;28;20251;-68
2023/02/06 06:36:05;;;;;;;1999.90;999.90;;;1.70;99.90;;;;;;5036696;28;20173;-68
2023/02/06 06:38:30;;;;;;;1999.90;999.90;;;1.70;99.90;;;;;;5036359;28;20184;-68
2023/02/06 06:40:56;;;;;;;1999.90;999.90;;;1.60;99.90;;;;;;5036207;28;20642;-68
2023/02/06 06:43:21;;;;;;;1999.90;999.90;;;1.60;99.90;;;;;;5036433;28;20164;-68
2023/02/06 06:45:47;;;;;;;1999.90;999.90;;;1.60;99.90;;;;;;5036301;28;20607;-68
2023/02/06 06:48:12;;;;;;;1999.90;999.90;;;1.60;99.90;;;;;;5035568;28;20164;-68
2023/02/06 06:50:38;;;;;;;1999.90;999.90;;;1.60;99.90;;;;;;5035859;28;20223;-68
2023/02/06 06:53:04;;;;;;;1999.90;999.90;;;1.60;99.90;;;;;;5036261;28;20172;-68
2023/02/06 06:55:29;;;;;;;1999.90;999.90;;;1.60;99.90;;;;;;5035869;28;20220;-68
2023/02/06 06:57:55;;;;;;;1999.90;999.90;;;1.60;99.90;;;;;;5035890;28;20199;-68
2023/02/06 07:00:21;;;;;;;1999.90;999.90;;;1.60;99.90;;;;;;5035928;28;20189;-68
2023/02/06 07:02:46;;;;;;;1999.90;999.90;;;1.60;99.90;;;;;;5036022;28;20176;-68
2023/02/06 07:05:12;;;;;;;1999.90;999.90;;;1.60;99.90;;;;;;5035617;28;20556;-68
2023/02/06 07:07:38;;;;;;;1999.90;999.90;;;1.70;99.90;;;;;;5035527;28;20176;-68
2023/02/06 07:10:08;;;;;;;1999.90;999.90;;;1.70;99.90;;;;;;5035555;28;20430;-67
2023/02/06 07:12:35;;;;;;;1999.90;999.90;;;1.70;99.90;;;;;;5035676;28;20554;-68
2023/02/06 07:15:00;;;;;;;1999.90;999.90;;;1.80;99.90;;;;;;5035172;28;20203;-68
2023/02/06 07:17:26;;;;;;;1999.90;999.90;;;1.80;99.90;;;;;;5035274;28;20172;-68
2023/02/06 07:19:51;;;;;;;1999.90;999.90;;;1.90;99.90;;;;;;5035111;28;20248;-68
2023/02/06 07:22:20;;;;;;;1999.90;999.90;;;1.90;99.90;;;;;;5035283;28;20222;-68
2023/02/06 07:24:46;;;;;;;1999.90;999.90;;;1.90;99.90;;;;;;5035042;28;20165;-68
2023/02/06 07:27:11;;;;;;;1999.90;999.90;;;1.90;99.90;;;;;;5035461;28;20200;-68
2023/02/06 07:29:37;;;;;;;1999.90;999.90;;;1.90;99.90;;;;;;5034538;28;20221;-68
2023/02/06 07:32:04;;;;;;;1999.90;999.90;;;1.90;99.90;;;;;;5035232;28;20168;-68
2023/02/06 07:34:29;;;;;;;1999.90;999.90;;;1.80;99.90;;;;;;5034588;28;20291;-68
2023/02/06 07:36:55;;;;;;;1999.90;999.90;;;1.80;99.90;;;;;;5035223;28;20204;-68
2023/02/06 07:39:21;;;;;;;1999.90;999.90;;;1.90;99.90;;;;;;5035141;28;20604;-68
2023/02/06 07:41:48;;;;;;;1999.90;999.90;;;1.80;99.90;;;;;;5034501;28;20406;-68
2023/02/06 07:44:14;;;;;;;1999.90;999.90;;;1.90;99.90;;;;;;5034823;28;20634;-68
2023/02/06 07:46:41;;;;;;;1999.90;999.90;;;1.90;99.90;;;;;;5034575;28;20215;-68
2023/02/06 07:49:07;;;;;;;1999.90;999.90;;;1.90;99.90;;;;;;5034748;28;20469;-68
2023/02/06 07:51:32;;;;;;;1999.90;999.90;;;2.00;99.90;;;;;;5034601;28;20238;-68
2023/02/06 07:53:58;;;;;;;1999.90;999.90;;;1.90;99.90;;;;;;5034738;28;20228;-68
2023/02/06 07:56:24;;;;;;;1999.90;999.90;;;1.90;99.90;;;;;;5034588;28;20171;-68
2023/02/06 07:58:53;;;;;;;1999.90;999.90;;;1.90;99.90;;;;;;5034461;28;20592;-68
2023/02/06 08:01:20;;;;;;;1999.90;999.90;;;1.90;99.90;;;;;;5033918;28;20413;-67
2023/02/06 08:03:51;;;;;;;1999.90;999.90;;;1.90;99.90;;;;;;5034669;28;20176;-68
2023/02/06 08:06:17;;;;;;;1999.90;999.90;;;1.90;99.90;;;;;;5034526;28;20235;-68
2023/02/06 08:08:44;;;;;;;1999.90;999.90;;;1.90;99.90;;;;;;5034320;28;20287;-68
2023/02/06 08:11:12;;;;;;;1999.90;999.90;;;1.90;99.90;;;;;;5033962;28;20172;-68
2023/02/06 08:13:37;;;;;;;1999.90;999.90;;;1.90;99.90;;;;;;5034039;28;20198;-68
2023/02/06 08:16:09;;;;;;;1999.90;999.90;;;1.80;99.90;;;;;;5033958;28;20180;-67
2023/02/06 08:18:36;;;;;;;1999.90;999.90;;;1.80;99.90;;;;;;5033931;28;20192;-68
2023/02/06 08:21:04;;;;;;;1999.90;999.90;;;1.80;99.90;;;;;;5034203;28;20168;-68
2023/02/06 08:23:29;;;;;;;1999.90;999.90;;;1.80;99.90;;;;;;5034153;28;20183;-68
2023/02/06 08:26:06;;;;;;;1999.90;999.90;;;1.90;99.90;;;;;;5033850;28;20184;-68
2023/02/06 08:28:34;;;;;;;1999.90;999.90;;;1.90;99.90;;;;;;5035049;28;20197;-68
2023/02/06 08:31:01;;;;;;;1999.90;999.90;;;2.00;99.90;;;;;;5040210;28;20521;-68
2023/02/06 08:33:26;;;;;;;1999.90;999.90;;;2.00;99.90;;;;;;5040160;28;20181;-68
2023/02/06 08:35:52;;;;;;;1999.90;999.90;;;2.00;99.90;;;;;;5039990;28;20279;-68
2023/02/06 08:38:18;;;;;;;1999.90;999.90;;;2.30;99.90;;;;;;5038927;28;20411;-68
2023/02/06 08:40:44;;;;;;;1999.90;999.90;;;2.00;99.90;;;;;;5038776;28;20183;-68
2023/02/06 08:43:09;;;;;;;1999.90;999.90;;;2.10;99.90;;;;;;5039168;28;20171;-68
2023/02/06 08:45:35;;;;;;;1999.90;999.90;;;2.20;99.90;;;;;;5039125;28;20164;-68
2023/02/06 08:48:01;;;;;;;1999.90;999.90;;;2.10;99.90;;;;;;5033469;28;20553;-68
2023/02/06 08:50:26;;;;;;;1999.90;999.90;;;2.20;99.90;;;;;;5034328;28;20188;-68
2023/02/06 08:52:52;;;;;;;1999.90;999.90;;;2.10;99.90;;;;;;5035151;28;20532;-68
2023/02/06 08:55:18;;;;;;;1999.90;999.90;;;2.20;99.90;;;;;;5034727;28;20212;-68
2023/02/06 08:57:44;;;;;;;1999.90;999.90;;;2.20;99.90;;;;;;5034770;28;20176;-68
2023/02/06 09:00:10;;;;;;;1999.90;999.90;;;2.20;99.90;;;;;;5034219;28;20612;-68
2023/02/06 09:02:36;;;;;;;1999.90;999.90;;;2.20;99.90;;;;;;5034500;28;20168;-68
2023/02/06 09:05:01;;;;;;;1999.90;999.90;;;2.20;99.90;;;;;;5033956;28;20191;-68
2023/02/06 09:07:27;;;;;;;1999.90;999.90;;;2.20;99.90;;;;;;5033040;28;20251;-68
2023/02/06 09:09:52;;;;;;;1999.90;999.90;;;2.30;99.90;;;;;;5033449;28;20196;-68
2023/02/06 09:12:18;;;;;;;1999.90;999.90;;;2.30;99.90;;;;;;5033516;28;20226;-68
2023/02/06 09:14:44;;;;;;;1999.90;999.90;;;2.20;99.90;;;;;;5033575;28;20704;-68
2023/02/06 09:17:09;;;;;;;1999.90;999.90;;;2.20;99.90;;;;;;5033367;28;20223;-68
2023/02/06 09:19:35;;;;;;;1999.90;999.90;;;2.20;99.90;;;;;;5033355;28;20692;-68
2023/02/06 09:22:01;;;;;;;1999.90;999.90;;;2.30;99.90;;;;;;5032776;28;20247;-68
2023/02/06 09:24:28;;;;;;;1999.90;999.90;;;2.50;99.90;;;;;;5032909;28;20204;-68
2023/02/06 09:26:54;;;;;;;1999.90;999.90;;;2.50;99.90;;;;;;5032661;28;20176;-68
2023/02/06 09:29:20;;;;;;;1999.90;999.90;;;2.60;99.90;;;;;;5032721;28;20219;-68
2023/02/06 09:31:46;;;;;;;1999.90;999.90;;;2.60;99.90;;;;;;5032542;28;20812;-69
2023/02/06 09:34:12;;;;;;;1999.90;999.90;;;2.60;99.90;;;;;;5032346;28;20204;-68
2023/02/06 09:36:38;;;;;;;1999.90;999.90;;;2.80;99.90;;;;;;5032168;28;20179;-68
2023/02/06 09:39:06;;;;;;;1999.90;999.90;;;3.00;99.90;;;;;;5032103;28;20419;-68
2023/02/06 09:41:44;;;;;;;1999.90;999.90;;;3.10;99.90;;;;;;5032260;28;20164;-68
2023/02/06 09:44:12;;;;;;;1999.90;999.90;;;3.10;99.90;;;;;;5032295;28;20180;-68
2023/02/06 09:47:01;;;;;;;1999.90;999.90;;;3.20;99.90;;;;;;5032139;28;20178;-68
2023/02/06 09:50:16;;;;;;;1999.90;999.90;;;3.30;99.90;;;;;;5031993;28;20189;-68
2023/02/06 09:52:59;;;;;;;1999.90;999.90;;;3.40;99.90;;;;;;5003487;28;20426;-68
2023/02/06 09:55:46;;;;;;;1999.90;999.90;;;3.70;99.90;;;;;;5036354;28;20447;-68
2023/02/06 09:58:38;;;;;;;1999.90;999.90;;;3.90;99.90;;;;;;5036265;28;20168;-68
2023/02/06 10:01:28;;;;;;;1999.90;999.90;;;4.20;99.90;;;;;;5035883;28;21119;-68
2023/02/06 10:04:20;;;;;;;1999.90;999.90;;;4.40;99.90;;;;;;5036113;28;20696;-68
2023/02/06 10:06:53;;;;;;;1999.90;999.90;;;4.30;99.90;;;;;;5035868;28;20971;-68
2023/02/06 10:09:41;;;;;;;1999.90;999.90;;;4.30;99.90;;;;;;5035958;28;21175;-68
2023/02/06 10:12:50;;;;;;;1999.90;999.90;;;4.10;99.90;;;;;;5034423;28;20481;-69
2023/02/06 10:15:45;;;;;;;1999.90;999.90;;;4.10;99.90;;;;;;5035195;28;20616;-70
2023/02/06 10:18:24;;;;;;;1999.90;999.90;;;4.30;99.90;;;;;;5032194;28;20419;-69
2023/02/06 10:20:55;;;;;;;1999.90;999.90;;;4.50;99.90;;;;;;5034679;28;20426;-69
2023/02/06 10:23:33;;;;;;;1999.90;999.90;;;4.60;99.90;;;;;;5035440;28;20482;-68
2023/02/06 10:26:16;;;;;;;1999.90;999.90;;;4.70;99.90;;;;;;5035474;28;20406;-68
2023/02/06 10:28:51;;;;;;;1999.90;999.90;;;4.80;99.90;;;;;;5031699;28;20439;-68
2023/02/06 10:31:20;;;;;;;1999.90;999.90;;;4.80;99.90;;;;;;5035234;28;20402;-68
2023/02/06 10:34:20;;;;;;;1999.90;999.90;;;4.80;99.90;;;;;;5035093;28;20434;-68
2023/02/06 10:36:57;;;;;;;1999.90;999.90;;;4.70;99.90;;;;;;5003070;28;20411;-68
2023/02/06 10:39:44;;;;;;;1999.90;999.90;;;4.50;99.90;;;;;;5034997;28;20772;-70
2023/02/06 10:42:24;;;;;;;1999.90;999.90;;;4.60;99.90;;;;;;5034510;28;20399;-67
2023/02/06 10:45:22;;;;;;;1999.90;999.90;;;4.60;99.90;;;;;;5035433;28;20493;-69
2023/02/06 10:48:15;;;;;;;1999.90;999.90;;;4.50;99.90;;;;;;5034610;28;20893;-68
2023/02/06 10:51:08;;;;;;;1999.90;999.90;;;4.50;99.90;;;;;;5033931;28;20172;-68
2023/02/06 10:53:43;;;;;;;1999.90;999.90;;;4.70;99.90;;;;;;5034702;28;20391;-71
2023/02/06 10:56:12;;;;;;;1999.90;999.90;;;4.80;99.90;;;;;;5034035;28;20754;-69
2023/02/06 10:58:58;;;;;;;1999.90;999.90;;;5.00;99.90;;;;;;5034465;28;20431;-71
2023/02/06 11:01:28;;;;;;;1999.90;999.90;;;5.10;99.90;;;;;;5034206;28;20501;-68
2023/02/06 11:04:17;;;;;;;1999.90;999.90;;;5.20;99.90;;;;;;5034191;28;20502;-69
2023/02/06 11:06:45;;;;;;;1999.90;999.90;;;5.10;99.90;;;;;;5034085;28;20402;-70
2023/02/06 11:09:11;;;;;;;1999.90;999.90;;;4.90;99.90;;;;;;5034230;28;20443;-70
2023/02/06 11:11:46;;;;;;;1999.90;999.90;;;4.80;99.90;;;;;;5033538;28;20446;-69
2023/02/06 11:14:25;;;;;;;1999.90;999.90;;;4.80;99.90;;;;;;5034115;28;20960;-69
2023/02/06 11:16:51;;;;;;;1999.90;999.90;;;4.80;99.90;;;;;;5034966;28;20387;-68
2023/02/06 11:19:25;;;;;;;1999.90;999.90;;;4.90;99.90;;;;;;5033999;28;20947;-73
2023/02/06 11:22:06;;;;;;;1999.90;999.90;;;4.70;99.90;;;;;;5033996;28;20472;-71
2023/02/06 11:24:32;;;;;;;1999.90;999.90;;;4.60;99.90;;;;;;5034587;28;20759;-70
2023/02/06 11:27:00;;;;;;;1999.90;999.90;;;4.60;99.90;;;;;;5034364;28;20422;-68
2023/02/06 11:29:35;;;;;;;1999.90;999.90;;;4.70;99.90;;;;;;5034349;28;20451;-70
2023/02/06 11:32:04;;;;;;;1999.90;999.90;;;4.70;99.90;;;;;;5034604;28;20456;-71
2023/02/06 11:34:37;;;;;;;1999.90;999.90;;;4.60;99.90;;;;;;5033776;28;20496;-68
2023/02/06 11:37:05;;;;;;;1999.90;999.90;;;4.90;99.90;;;;;;5033914;28;20431;-69
2023/02/06 11:39:36;;;;;;;1999.90;999.90;;;5.50;99.90;;;;;;5033819;28;20195;-69
2023/02/06 11:42:15;;;;;;;1999.90;999.90;;;5.90;99.90;;;;;;5033109;28;20468;-68
2023/02/06 11:44:43;;;;;;;1999.90;999.90;;;5.90;99.90;;;;;;5033636;28;20403;-69
2023/02/06 11:47:30;;;;;;;1999.90;999.90;;;5.60;99.90;;;;;;5033610;28;20438;-69
2023/02/06 11:50:32;;;;;;;1999.90;999.90;;;5.70;99.90;;;;;;5032811;28;20504;-69
2023/02/06 11:53:15;;;;;;;1999.90;999.90;;;6.00;99.90;;;;;;5027336;28;20458;-69
2023/02/06 11:55:42;;;;;;;1999.90;999.90;;;5.80;99.90;;;;;;5033156;28;20537;-69
2023/02/06 11:58:10;;;;;;;1999.90;999.90;;;5.70;99.90;;;;;;5033190;28;20407;-69
2023/02/06 12:00:43;;;;;;;1999.90;999.90;;;5.40;99.90;;;;;;5033108;28;20423;-68
2023/02/06 12:03:29;;;;;;;1999.90;999.90;;;5.20;99.90;;;;;;5032576;28;20429;-68
2023/02/06 12:06:01;;;;;;;1999.90;999.90;;;5.00;99.90;;;;;;5032861;28;20439;-68
2023/02/06 12:08:37;;;;;;;1999.90;999.90;;;5.20;99.90;;;;;;5032980;28;20471;-69
2023/02/06 12:11:08;;;;;;;1999.90;999.90;;;5.30;99.90;;;;;;5031969;28;20395;-69
2023/02/06 12:13:41;;;;;;;1999.90;999.90;;;5.70;99.90;;;;;;5033224;28;20407;-68
2023/02/06 12:16:10;;;;;;;1999.90;999.90;;;5.40;99.90;;;;;;5032835;28;20557;-69
2023/02/06 12:18:42;;;;;;;1999.90;999.90;;;5.40;99.90;;;;;;5031700;28;20422;-69
2023/02/06 12:21:27;;;;;;;1999.90;999.90;;;5.40;99.90;;;;;;5031146;28;20410;-69
2023/02/06 12:23:57;;;;;;;1999.90;999.90;;;5.20;99.90;;;;;;5032231;28;20426;-68